Time;durP1;ratioP1;P1;durP2;ratioP2;P2;SDS_P1;SDS_P2;PMS_P1;PMS_P2;Temp;Humidity;BMP_temperature;BMP_pressure;BME280_temperature;BME280_humidity;BME280_pressure;Samples;Min_cycle;Max_cycle;Signal;HPM_P1;HPM_P2
2021/10/25 00:00:44;;;;;;;;;;;11.30;49.70;;;;;;4360801;32;19982;-42
2021/10/25 00:03:10;;;;;;;;;;;11.40;49.70;;;;;;4360653;32;20375;-44
2021/10/25 00:05:36;;;;;;;;;;;11.40;49.50;;;;;;4360918;32;19977;-43
2021/10/25 00:08:03;;;;;;;;;;;11.50;49.50;;;;;;4360609;32;19982;-43
2021/10/25 00:10:29;;;;;;;;;;;11.40;49.30;;;;;;4360745;32;19970;-43
2021/10/25 00:12:55;;;;;;;;;;;11.40;49.30;;;;;;4360483;32;19965;-42
2021/10/25 00:15:21;;;;;;;;;;;11.40;49.30;;;;;;4360489;32;19997;-45
2021/10/25 00:17:48;;;;;;;;;;;11.30;49.30;;;;;;4360306;32;20050;-43
2021/10/25 00:20:14;;;;;;;;;;;11.30;49.20;;;;;;4360481;32;20475;-42
2021/10/25 00:22:40;;;;;;;;;;;11.20;49.30;;;;;;4359924;32;19963;-44
2021/10/25 00:25:07;;;;;;;;;;;11.20;49.40;;;;;;4360650;32;19966;-42
2021/10/25 00:27:33;;;;;;;;;;;11.20;49.60;;;;;;4360146;32;19967;-42
2021/10/25 00:30:00;;;;;;;;;;;11.20;49.70;;;;;;4360802;32;19977;-42
2021/10/25 00:32:26;;;;;;;;;;;11.20;49.60;;;;;;4360029;32;19966;-45
2021/10/25 00:34:52;;;;;;;;;;;11.20;49.40;;;;;;4360308;32;19994;-43
2021/10/25 00:37:18;;;;;;;;;;;11.10;49.40;;;;;;4359940;32;20391;-43
2021/10/25 00:39:44;;;;;;;;;;;11.00;49.60;;;;;;4359892;32;20069;-43
2021/10/25 00:42:11;;;;;;;;;;;11.00;49.80;;;;;;4360366;32;20052;-43
2021/10/25 00:44:37;;;;;;;;;;;11.00;50.10;;;;;;4333482;32;19990;-42
2021/10/25 00:47:04;;;;;;;;;;;11.00;50.30;;;;;;4373963;32;19958;-43
2021/10/25 00:49:30;;;;;;;;;;;11.00;50.30;;;;;;4374936;32;19965;-45
2021/10/25 00:51:57;;;;;;;;;;;11.00;50.40;;;;;;4360951;32;20001;-44
2021/10/25 00:54:23;;;;;;;;;;;11.10;50.40;;;;;;4374973;32;20012;-44
2021/10/25 00:56:49;;;;;;;;;;;11.00;50.60;;;;;;4360857;32;19972;-44
2021/10/25 00:59:16;;;;;;;;;;;11.00;50.90;;;;;;4374516;32;19986;-43
2021/10/25 01:01:42;;;;;;;;;;;10.90;51.10;;;;;;4361108;32;19983;-44
2021/10/25 01:04:10;;;;;;;;;;;10.80;50.80;;;;;;4374844;32;20098;-43
2021/10/25 01:06:39;;;;;;;;;;;10.80;51.50;;;;;;4360716;32;20052;-42
2021/10/25 01:09:06;;;;;;;;;;;10.70;51.70;;;;;;4374929;32;19965;-42
2021/10/25 01:11:33;;;;;;;;;;;10.60;52.10;;;;;;4375007;32;20050;-45
2021/10/25 01:13:59;;;;;;;;;;;10.50;52.90;;;;;;4348618;32;19974;-44
2021/10/25 01:16:26;;;;;;;;;;;10.30;53.70;;;;;;4374292;32;20042;-49
2021/10/25 01:18:56;;;;;;;;;;;10.20;54.30;;;;;;4360873;32;19969;-47
2021/10/25 01:21:22;;;;;;;;;;;10.10;54.60;;;;;;4374701;32;19968;-47
2021/10/25 01:23:49;;;;;;;;;;;10.10;55.00;;;;;;4374388;32;20370;-46
2021/10/25 01:26:16;;;;;;;;;;;10.10;55.00;;;;;;4374874;32;19968;-45
2021/10/25 01:28:42;;;;;;;;;;;10.00;55.30;;;;;;4360360;32;19950;-43
2021/10/25 01:31:08;;;;;;;;;;;10.00;55.80;;;;;;4374705;32;19974;-46
2021/10/25 01:33:36;;;;;;;;;;;9.90;56.20;;;;;;4374645;32;19986;-47
2021/10/25 01:36:02;;;;;;;;;;;9.90;56.30;;;;;;4374441;32;19966;-45
2021/10/25 01:38:28;;;;;;;;;;;9.90;56.40;;;;;;4374466;32;19970;-42
2021/10/25 01:40:54;;;;;;;;;;;9.80;56.90;;;;;;4374037;32;20009;-42
2021/10/25 01:43:21;;;;;;;;;;;9.80;57.00;;;;;;4374571;32;19981;-42
2021/10/25 01:45:48;;;;;;;;;;;9.80;57.20;;;;;;4368132;32;19962;-43
2021/10/25 01:48:14;;;;;;;;;;;9.70;57.20;;;;;;4359109;32;20107;-43
2021/10/25 01:50:40;;;;;;;;;;;9.80;57.30;;;;;;4359051;32;19962;-40
2021/10/25 01:53:08;;;;;;;;;;;9.80;57.40;;;;;;4358988;32;19967;-39
2021/10/25 01:55:34;;;;;;;;;;;9.80;57.30;;;;;;4359388;32;19971;-42
2021/10/25 01:58:01;;;;;;;;;;;9.80;57.30;;;;;;4358600;32;19962;-41
2021/10/25 02:00:27;;;;;;;;;;;9.90;57.20;;;;;;4358894;32;20101;-40
2021/10/25 02:02:53;;;;;;;;;;;9.90;57.20;;;;;;4358210;32;19982;-42
2021/10/25 02:05:19;;;;;;;;;;;9.90;57.30;;;;;;4359018;32;20359;-43
2021/10/25 02:07:45;;;;;;;;;;;9.90;57.20;;;;;;4359039;32;19989;-42
2021/10/25 02:10:12;;;;;;;;;;;10.00;57.00;;;;;;4358506;32;20067;-41
2021/10/25 02:12:38;;;;;;;;;;;10.00;56.90;;;;;;4358631;32;20454;-41
2021/10/25 02:15:05;;;;;;;;;;;10.00;56.90;;;;;;4359308;32;19966;-41
2021/10/25 02:17:32;;;;;;;;;;;10.10;56.90;;;;;;4358442;32;19970;-41
2021/10/25 02:19:58;;;;;;;;;;;10.10;56.60;;;;;;4358949;32;20001;-42
2021/10/25 02:22:24;;;;;;;;;;;10.20;56.40;;;;;;4358535;32;20385;-42
2021/10/25 02:24:50;;;;;;;;;;;10.30;56.20;;;;;;4358342;32;19982;-42
2021/10/25 02:27:17;;;;;;;;;;;10.30;56.10;;;;;;4358550;32;19970;-42
2021/10/25 02:29:43;;;;;;;;;;;10.40;55.70;;;;;;4358319;32;19954;-40
2021/10/25 02:32:10;;;;;;;;;;;10.40;55.50;;;;;;4358347;32;20109;-39
2021/10/25 02:34:36;;;;;;;;;;;10.50;55.40;;;;;;4358401;32;19966;-40
2021/10/25 02:37:03;;;;;;;;;;;10.50;55.20;;;;;;4358735;32;19969;-40
2021/10/25 02:39:29;;;;;;;;;;;10.50;55.20;;;;;;4358422;32;20013;-42
2021/10/25 02:41:57;;;;;;;;;;;10.50;55.10;;;;;;4358496;32;19973;-40
2021/10/25 02:44:24;;;;;;;;;;;10.40;55.00;;;;;;4358408;32;19966;-39
2021/10/25 02:46:53;;;;;;;;;;;10.40;55.00;;;;;;4370794;32;20394;-40
2021/10/25 02:49:20;;;;;;;;;;;10.40;55.10;;;;;;4373766;32;20453;-40
2021/10/25 02:51:46;;;;;;;;;;;10.40;55.10;;;;;;4347080;32;20045;-39
2021/10/25 02:54:12;;;;;;;;;;;10.40;55.10;;;;;;4359523;32;19986;-38
2021/10/25 02:56:38;;;;;;;;;;;10.40;55.20;;;;;;4373720;32;20033;-39
2021/10/25 02:59:11;;;;;;;;;;;10.40;55.20;;;;;;4373446;32;19981;-38
2021/10/25 03:01:38;;;;;;;;;;;10.40;55.20;;;;;;4374176;32;19995;-38
2021/10/25 03:04:05;;;;;;;;;;;10.40;55.10;;;;;;4373320;32;20439;-39
2021/10/25 03:06:31;;;;;;;;;;;10.40;55.20;;;;;;4359585;32;19998;-39
2021/10/25 03:08:58;;;;;;;;;;;10.40;55.10;;;;;;4373297;32;20004;-39
2021/10/25 03:11:24;;;;;;;;;;;10.40;55.20;;;;;;4373005;32;19969;-38
2021/10/25 03:13:50;;;;;;;;;;;10.40;55.30;;;;;;4374773;32;20081;-39
2021/10/25 03:16:17;;;;;;;;;;;10.40;55.30;;;;;;4376183;32;20591;-38
2021/10/25 03:18:43;;;;;;;;;;;10.40;55.40;;;;;;4376244;32;20033;-38
2021/10/25 03:21:10;;;;;;;;;;;10.40;55.50;;;;;;4376084;32;19982;-37
2021/10/25 03:23:36;;;;;;;;;;;10.40;55.50;;;;;;4376056;32;20421;-38
2021/10/25 03:26:03;;;;;;;;;;;10.40;55.60;;;;;;4376399;32;20077;-37
2021/10/25 03:28:29;;;;;;;;;;;10.30;55.80;;;;;;4375828;32;19985;-38
2021/10/25 03:30:55;;;;;;;;;;;10.20;56.10;;;;;;4376114;32;19962;-38
2021/10/25 03:33:22;;;;;;;;;;;10.20;56.40;;;;;;4376090;32;20047;-39
2021/10/25 03:35:48;;;;;;;;;;;10.10;56.60;;;;;;4376211;32;20395;-38
2021/10/25 03:38:16;;;;;;;;;;;10.20;56.80;;;;;;4375805;32;19985;-38
2021/10/25 03:40:45;;;;;;;;;;;10.10;56.80;;;;;;4376372;32;19977;-38
2021/10/25 03:43:12;;;;;;;;;;;10.10;57.00;;;;;;4375998;32;20079;-39
2021/10/25 03:45:49;;;;;;;;;;;10.00;57.10;;;;;;4370737;32;19986;-39
2021/10/25 03:48:29;;;;;;;;;;;10.00;57.20;;;;;;4348175;32;19987;-38
2021/10/25 03:50:56;;;;;;;;;;;9.90;57.40;;;;;;4361136;32;19959;-39
2021/10/25 03:53:50;;;;;;;;;;;9.80;57.50;;;;;;4360723;32;19967;-40
2021/10/25 03:59:31;;;;;;;;;;;9.70;57.80;;;;;;4329138;32;19962;-40
2021/10/25 04:27:11;;;;;;;;;;;9.70;58.00;;;;;;4359547;32;19966;-41
2021/10/25 04:29:39;;;;;;;;;;;9.70;58.20;;;;;;4360467;32;19963;-40
2021/10/25 04:32:07;;;;;;;;;;;9.70;58.30;;;;;;4360193;32;20087;-39
2021/10/25 04:34:34;;;;;;;;;;;9.70;58.30;;;;;;4360271;32;19958;-40
2021/10/25 04:37:00;;;;;;;;;;;9.70;58.40;;;;;;4359935;32;19970;-40
2021/10/25 04:39:29;;;;;;;;;;;9.80;58.50;;;;;;4346352;32;20048;-40
2021/10/25 04:41:55;;;;;;;;;;;9.80;58.50;;;;;;4360358;32;20400;-40
2021/10/25 04:44:21;;;;;;;;;;;9.80;58.50;;;;;;4359905;32;19969;-40
2021/10/25 04:46:47;;;;;;;;;;;9.90;58.60;;;;;;4372293;32;19986;-40
2021/10/25 04:49:14;;;;;;;;;;;9.90;58.70;;;;;;4374905;32;20477;-41
2021/10/25 04:51:40;;;;;;;;;;;9.90;58.70;;;;;;4374541;32;20526;-41
2021/10/25 04:54:06;;;;;;;;;;;10.00;58.70;;;;;;4374721;32;20418;-41
2021/10/25 04:56:32;;;;;;;;;;;10.10;58.70;;;;;;4374876;32;19966;-40
2021/10/25 04:58:58;;;;;;;;;;;10.10;58.60;;;;;;4374648;32;20381;-41
2021/10/25 05:01:24;;;;;;;;;;;10.20;58.60;;;;;;4374943;32;20382;-41
2021/10/25 05:03:51;;;;;;;;;;;10.30;58.50;;;;;;4360690;32;19962;-41
2021/10/25 05:06:18;;;;;;;;;;;10.30;58.20;;;;;;4374379;32;19977;-41
2021/10/25 05:08:47;;;;;;;;;;;10.40;58.10;;;;;;4375380;32;19995;-41
2021/10/25 05:11:13;;;;;;;;;;;10.40;58.20;;;;;;4360836;32;20414;-40
2021/10/25 05:13:39;;;;;;;;;;;10.50;58.30;;;;;;4374471;32;19968;-42
2021/10/25 05:16:06;;;;;;;;;;;10.50;58.00;;;;;;4373778;32;20402;-42
2021/10/25 05:18:32;;;;;;;;;;;10.60;58.00;;;;;;4374336;32;19969;-42
2021/10/25 05:20:59;;;;;;;;;;;10.60;57.70;;;;;;4374597;32;20415;-42
2021/10/25 05:23:26;;;;;;;;;;;10.70;57.60;;;;;;4374348;32;20033;-42
2021/10/25 05:25:52;;;;;;;;;;;10.70;57.50;;;;;;4374332;32;20045;-42
2021/10/25 05:28:18;;;;;;;;;;;10.70;57.30;;;;;;4374582;32;20043;-41
2021/10/25 05:30:45;;;;;;;;;;;10.70;57.30;;;;;;4374061;32;20466;-42
2021/10/25 05:33:11;;;;;;;;;;;10.70;57.10;;;;;;4374192;32;19971;-42
2021/10/25 05:35:40;;;;;;;;;;;10.80;57.20;;;;;;4374278;32;20052;-42
2021/10/25 05:38:06;;;;;;;;;;;10.80;57.30;;;;;;4373833;32;20002;-42
2021/10/25 05:40:32;;;;;;;;;;;10.80;57.20;;;;;;4374015;32;19954;-41
2021/10/25 05:43:01;;;;;;;;;;;10.90;57.00;;;;;;4374195;32;20511;-40
2021/10/25 05:45:29;;;;;;;;;;;10.90;56.90;;;;;;4369747;32;20013;-41
2021/10/25 05:47:55;;;;;;;;;;;10.90;56.90;;;;;;4359100;32;19967;-41
2021/10/25 05:50:22;;;;;;;;;;;11.00;56.80;;;;;;4359350;32;19966;-40
2021/10/25 05:52:48;;;;;;;;;;;11.00;56.40;;;;;;4359397;32;19993;-40
2021/10/25 05:55:20;;;;;;;;;;;11.10;56.40;;;;;;4359052;32;20015;-41
2021/10/25 05:57:48;;;;;;;;;;;11.10;56.20;;;;;;4359200;32;19962;-42
2021/10/25 06:00:15;;;;;;;;;;;11.10;55.80;;;;;;4359075;32;20006;-42
2021/10/25 06:02:50;;;;;;;;;;;11.10;55.90;;;;;;4358869;32;19990;-42
2021/10/25 06:05:16;;;;;;;;;;;11.10;56.40;;;;;;4326238;33;20018;-41
2021/10/25 06:07:43;;;;;;;;;;;11.10;55.80;;;;;;4326429;33;19967;-42
2021/10/25 06:10:13;;;;;;;;;;;11.10;55.70;;;;;;4326577;33;20473;-41
2021/10/25 06:12:42;;;;;;;;;;;11.10;55.60;;;;;;4326888;33;19971;-41
2021/10/25 06:15:15;;;;;;;;;;;11.00;55.50;;;;;;4326492;33;20051;-41
2021/10/25 06:17:52;;;;;;;;;;;11.00;55.50;;;;;;4326917;33;20006;-42
2021/10/25 06:20:19;;;;;;;;;;;11.10;55.70;;;;;;4326426;33;20471;-41
2021/10/25 06:22:45;;;;;;;;;;;11.10;55.70;;;;;;4326287;33;19975;-41
2021/10/25 06:25:13;;;;;;;;;;;11.10;55.30;;;;;;4326464;33;20120;-42
2021/10/25 06:27:41;;;;;;;;;;;11.10;55.20;;;;;;4327037;33;20109;-41
2021/10/25 06:30:08;;;;;;;;;;;11.10;55.00;;;;;;4326301;33;19967;-42
2021/10/25 06:32:34;;;;;;;;;;;11.10;55.00;;;;;;4326746;33;19990;-42
2021/10/25 06:35:04;;;;;;;;;;;11.10;55.00;;;;;;4326295;33;20063;-41
2021/10/25 06:37:50;;;;;;;;;;;11.20;55.20;;;;;;4343651;32;19990;-41
2021/10/25 06:40:17;;;;;;;;;;;11.20;55.00;;;;;;4343355;32;20119;-41
2021/10/25 06:42:44;;;;;;;;;;;11.30;55.20;;;;;;4343550;32;20022;-41
2021/10/25 06:45:14;;;;;;;;;;;11.40;55.00;;;;;;4345805;32;20091;-43
2021/10/25 06:47:41;;;;;;;;;;;11.40;53.70;;;;;;4357124;32;19985;-42
2021/10/25 06:50:08;;;;;;;;;;;11.30;53.80;;;;;;4363093;32;20418;-41
2021/10/25 06:52:34;;;;;;;;;;;11.30;54.10;;;;;;4363537;32;20476;-42
2021/10/25 06:55:01;;;;;;;;;;;11.30;54.10;;;;;;4363101;32;20367;-42
2021/10/25 06:57:27;;;;;;;;;;;11.30;54.10;;;;;;4363187;32;19985;-42
2021/10/25 06:59:53;;;;;;;;;;;11.40;54.30;;;;;;4363694;32;19962;-43
2021/10/25 07:02:20;;;;;;;;;;;11.40;54.30;;;;;;4363162;32;19987;-42
2021/10/25 07:04:48;;;;;;;;;;;11.40;54.30;;;;;;4363291;32;20049;-42
2021/10/25 07:07:16;;;;;;;;;;;11.50;54.00;;;;;;4361572;32;20088;-42
2021/10/25 07:09:43;;;;;;;;;;;11.50;54.00;;;;;;4363342;32;19974;-44
2021/10/25 07:12:10;;;;;;;;;;;11.50;53.80;;;;;;4363244;32;19962;-41
2021/10/25 07:14:38;;;;;;;;;;;11.60;53.40;;;;;;4361815;32;20034;-42
2021/10/25 07:17:14;;;;;;;;;;;11.50;53.20;;;;;;4363186;32;19962;-41
2021/10/25 07:19:56;;;;;;;;;;;11.50;53.40;;;;;;4363506;32;20041;-42
2021/10/25 08:06:11;;;;;;;;;;;11.30;53.20;;;;;;4360486;32;20370;-43
2021/10/25 08:08:50;;;;;;;;;;;11.30;52.90;;;;;;4359922;32;19992;-44
2021/10/25 08:11:18;;;;;;;;;;;11.30;52.80;;;;;;4360022;32;19966;-44
2021/10/25 08:13:46;;;;;;;;;;;11.40;52.80;;;;;;4360504;32;19973;-44
2021/10/25 08:16:21;;;;;;;;;;;11.40;52.80;;;;;;4360429;32;20025;-43
2021/10/25 08:21:14;;;;;;;;;;;11.40;52.40;;;;;;4360672;32;19994;-45
2021/10/25 08:23:40;;;;;;;;;;;11.30;52.20;;;;;;4359633;32;20034;-46
2021/10/25 08:26:10;;;;;;;;;;;11.30;52.50;;;;;;4360278;32;19982;-42
2021/10/25 08:28:36;;;;;;;;;;;11.20;52.70;;;;;;4346344;32;20418;-42
2021/10/25 08:31:02;;;;;;;;;;;11.30;52.80;;;;;;4359539;32;19971;-44
2021/10/25 08:36:18;;;;;;;;;;;11.30;52.80;;;;;;4359602;32;20128;-47
2021/10/25 08:41:32;;;;;;;;;;;11.20;53.20;;;;;;4359946;32;20137;-44
2021/10/25 08:44:05;;;;;;;;;;;11.20;53.50;;;;;;4360121;32;19974;-43
2021/10/25 08:46:32;;;;;;;;;;;11.10;53.50;;;;;;4369998;32;20390;-42
2021/10/25 08:48:58;;;;;;;;;;;10.90;54.10;;;;;;4375283;32;19958;-44
2021/10/25 08:51:24;;;;;;;;;;;10.80;55.00;;;;;;4374740;32;20476;-44
2021/10/25 08:53:51;;;;;;;;;;;10.70;55.40;;;;;;4374583;32;19994;-44
2021/10/25 08:56:18;;;;;;;;;;;10.60;55.80;;;;;;4374323;32;19962;-42
2021/10/25 08:58:46;;;;;;;;;;;10.60;55.80;;;;;;4374406;32;19965;-44
2021/10/25 09:01:23;;;;;;;;;;;10.70;55.90;;;;;;4374638;32;20414;-44
2021/10/25 09:04:07;;;;;;;;;;;10.70;55.50;;;;;;4374563;32;19969;-44
2021/10/25 09:06:35;;;;;;;;;;;10.60;55.30;;;;;;4374884;32;20047;-41
2021/10/25 09:09:02;;;;;;;;;;;10.70;55.30;;;;;;4374650;32;20406;-43
2021/10/25 09:11:28;;;;;;;;;;;10.70;55.40;;;;;;4374091;32;19966;-43
2021/10/25 09:13:56;;;;;;;;;;;10.70;55.30;;;;;;4360316;32;20368;-42
2021/10/25 09:16:22;;;;;;;;;;;10.80;55.40;;;;;;4360691;32;19993;-44
2021/10/25 09:18:49;;;;;;;;;;;10.80;55.20;;;;;;4374363;32;20046;-43
2021/10/25 09:21:15;;;;;;;;;;;10.90;55.10;;;;;;4374009;32;19973;-43
2021/10/25 09:23:43;;;;;;;;;;;10.90;55.00;;;;;;4374034;32;19958;-44
2021/10/25 09:26:20;;;;;;;;;;;10.80;55.10;;;;;;4374427;32;19996;-43
2021/10/25 09:28:52;;;;;;;;;;;10.70;55.20;;;;;;4374160;32;20038;-42
2021/10/25 09:31:25;;;;;;;;;;;10.50;54.90;;;;;;4374118;32;19980;-43
2021/10/25 09:33:57;;;;;;;;;;;10.20;55.50;;;;;;4373996;32;19959;-43
2021/10/25 09:36:37;;;;;;;;;;;10.10;56.10;;;;;;4374242;32;19999;-42
2021/10/25 09:39:16;;;;;;;;;;;10.20;56.50;;;;;;4373803;32;19974;-40
2021/10/25 09:41:55;;;;;;;;;;;10.20;56.70;;;;;;4373923;32;20078;-42
2021/10/25 09:49:59;;;;;;;;;;;10.40;56.90;;;;;;4358675;32;20473;-43
2021/10/25 09:52:29;;;;;;;;;;;10.50;56.70;;;;;;4358757;32;20336;-43
2021/10/25 09:54:57;;;;;;;;;;;10.60;56.70;;;;;;4358948;32;19970;-44
2021/10/25 09:57:27;;;;;;;;;;;10.50;56.50;;;;;;4326774;33;19975;-43
2021/10/25 09:59:55;;;;;;;;;;;10.50;56.20;;;;;;4326432;33;20053;-43
2021/10/25 10:02:21;;;;;;;;;;;10.20;55.50;;;;;;4326146;33;19991;-45
2021/10/25 10:05:03;;;;;;;;;;;10.00;55.50;;;;;;4326802;33;19967;-43
2021/10/25 10:07:30;;;;;;;;;;;9.70;56.30;;;;;;4314321;33;20442;-43
2021/10/25 10:09:56;;;;;;;;;;;9.60;56.90;;;;;;4326420;33;20057;-43
2021/10/25 10:12:24;;;;;;;;;;;9.60;57.30;;;;;;4325987;33;20395;-43
2021/10/25 10:14:52;;;;;;;;;;;9.60;57.30;;;;;;4326055;33;19967;-43
2021/10/25 10:17:22;;;;;;;;;;;9.40;56.60;;;;;;4325724;33;20394;-44
2021/10/25 10:19:49;;;;;;;;;;;9.30;57.20;;;;;;4326748;33;19969;-43
2021/10/25 10:22:15;;;;;;;;;;;9.30;57.60;;;;;;4301930;33;20020;-44
2021/10/25 10:24:41;;;;;;;;;;;9.20;57.20;;;;;;4301252;33;20055;-43
2021/10/25 10:27:08;;;;;;;;;;;9.10;57.50;;;;;;4326059;33;20043;-42
2021/10/25 10:29:37;;;;;;;;;;;9.00;57.50;;;;;;4326205;33;20012;-42
2021/10/25 10:32:05;;;;;;;;;;;8.90;57.70;;;;;;4326449;33;19986;-43
2021/10/25 10:34:39;;;;;;;;;;;8.90;58.00;;;;;;4325599;32;20035;-44
2021/10/25 10:37:18;;;;;;;;;;;9.00;58.00;;;;;;4358334;32;20374;-41
2021/10/25 10:39:57;;;;;;;;;;;9.10;57.70;;;;;;4358057;32;19966;-42
2021/10/25 10:42:30;;;;;;;;;;;9.00;57.90;;;;;;4345667;32;20037;-44
2021/10/25 10:45:00;;;;;;;;;;;8.90;58.00;;;;;;4358792;32;20362;-43
2021/10/25 10:47:51;;;;;;;;;;;8.90;57.90;;;;;;4359932;32;20016;-43
2021/10/25 10:50:35;;;;;;;;;;;8.70;58.00;;;;;;4361402;32;20426;-42
2021/10/25 10:53:08;;;;;;;;;;;8.80;58.30;;;;;;4372769;32;20363;-41
2021/10/25 10:55:39;;;;;;;;;;;8.70;57.50;;;;;;4373613;32;20013;-42
2021/10/25 11:00:48;;;;;;;;;;;8.40;58.00;;;;;;4373145;32;19966;-42
2021/10/25 11:03:20;;;;;;;;;;;8.50;58.20;;;;;;4373131;32;20027;-43
2021/10/25 11:06:10;;;;;;;;;;;8.60;58.50;;;;;;4373097;32;19966;-42
2021/10/25 11:08:41;;;;;;;;;;;8.70;58.20;;;;;;4373356;32;19974;-42
2021/10/25 11:11:10;;;;;;;;;;;8.60;57.80;;;;;;4359051;32;19997;-43
2021/10/25 11:13:56;;;;;;;;;;;8.50;58.10;;;;;;4372956;32;20059;-42
2021/10/25 11:19:09;;;;;;;;;;;8.10;59.00;;;;;;4361032;32;20426;-42
2021/10/25 11:21:39;;;;;;;;;;;8.00;59.50;;;;;;4373229;32;20409;-42
2021/10/25 11:24:10;;;;;;;;;;;8.00;60.00;;;;;;4359429;32;19997;-43
2021/10/25 11:26:48;;;;;;;;;;;7.90;59.70;;;;;;4359329;32;20012;-43
2021/10/25 11:29:20;;;;;;;;;;;7.90;59.10;;;;;;4373003;32;19962;-44
2021/10/25 11:31:57;;;;;;;;;;;7.90;58.60;;;;;;4372559;32;20374;-43
2021/10/25 11:34:32;;;;;;;;;;;7.80;58.40;;;;;;4373481;32;19977;-44
2021/10/25 11:37:05;;;;;;;;;;;7.80;58.30;;;;;;4375665;32;19974;-45
2021/10/25 11:39:45;;;;;;;;;;;7.70;58.00;;;;;;4375875;32;19962;-46
2021/10/25 11:42:19;;;;;;;;;;;7.70;57.90;;;;;;4375299;32;20078;-45
2021/10/25 11:44:46;;;;;;;;;;;7.50;58.20;;;;;;4375368;32;20050;-43
2021/10/25 11:47:20;;;;;;;;;;;7.50;58.70;;;;;;4360900;32;19990;-44
2021/10/25 11:49:47;;;;;;;;;;;7.60;59.10;;;;;;4360707;32;19963;-44
2021/10/25 11:52:13;;;;;;;;;;;7.60;59.10;;;;;;4346396;32;20033;-43
2021/10/25 11:54:52;;;;;;;;;;;7.50;59.20;;;;;;4360329;32;20426;-45
2021/10/25 11:57:22;;;;;;;;;;;7.50;58.30;;;;;;4360048;32;19955;-47
2021/10/25 12:00:19;;;;;;;;;;;7.40;58.20;;;;;;4360216;32;20329;-43
2021/10/25 12:02:46;;;;;;;;;;;7.40;58.30;;;;;;4313845;33;19971;-47
2021/10/25 12:05:17;;;;;;;;;;;7.40;58.20;;;;;;4313347;33;19999;-44
2021/10/25 12:07:48;;;;;;;;;;;7.40;57.70;;;;;;4313347;33;19982;-46
2021/10/25 12:10:14;;;;;;;;;;;7.40;57.60;;;;;;4313552;33;19988;-44
2021/10/25 12:12:40;;;;;;;;;;;7.40;57.30;;;;;;4313172;33;19975;-44
2021/10/25 12:15:11;;;;;;;;;;;7.30;57.20;;;;;;4312971;33;19991;-44
2021/10/25 12:17:37;;;;;;;;;;;7.30;57.10;;;;;;4301508;33;20023;-45
2021/10/25 12:20:06;;;;;;;;;;;7.30;56.80;;;;;;4300850;33;19970;-47
2021/10/25 12:22:33;;;;;;;;;;;7.30;56.50;;;;;;4312734;33;19994;-45
2021/10/25 12:24:59;;;;;;;;;;;7.10;56.40;;;;;;4313004;33;20454;-45
2021/10/25 12:27:42;;;;;;;;;;;7.00;56.40;;;;;;4313495;33;19981;-47
2021/10/25 12:30:10;;;;;;;;;;;6.90;57.40;;;;;;4313472;33;20479;-44
2021/10/25 12:32:39;;;;;;;;;;;6.80;56.90;;;;;;4313225;33;19971;-47
2021/10/25 12:35:08;;;;;;;;;;;6.70;57.00;;;;;;4313299;33;20478;-43
2021/10/25 12:37:34;;;;;;;;;;;6.70;57.40;;;;;;4313022;33;20056;-43
2021/10/25 12:40:01;;;;;;;;;;;6.60;57.40;;;;;;4353314;32;19989;-44
2021/10/25 12:42:39;;;;;;;;;;;6.80;57.50;;;;;;4360338;32;19969;-43
2021/10/25 12:45:13;;;;;;;;;;;6.80;56.90;;;;;;4361599;32;20034;-45
2021/10/25 12:47:39;;;;;;;;;;;6.70;56.20;;;;;;4374236;32;19970;-44
2021/10/25 12:50:07;;;;;;;;;;;6.70;56.10;;;;;;4374600;32;19977;-46
2021/10/25 12:52:33;;;;;;;;;;;6.70;56.40;;;;;;4374277;32;20050;-44
2021/10/25 12:55:00;;;;;;;;;;;6.70;56.10;;;;;;4374707;32;20021;-46
2021/10/25 12:57:35;;;;;;;;;;;6.70;56.60;;;;;;4374992;32;19972;-43
2021/10/25 13:00:10;;;;;;;;;;;6.70;56.10;;;;;;4374653;32;19953;-45
2021/10/25 13:02:41;;;;;;;;;;;6.70;56.10;;;;;;4374382;32;20422;-45
2021/10/25 13:05:11;;;;;;;;;;;6.60;55.80;;;;;;4374607;32;20407;-44
2021/10/25 13:07:37;;;;;;;;;;;6.60;55.90;;;;;;4360475;32;20413;-43
2021/10/25 13:10:08;;;;;;;;;;;6.60;56.00;;;;;;4373994;32;19977;-44
2021/10/25 13:12:34;;;;;;;;;;;6.60;56.00;;;;;;4374146;32;19982;-45
2021/10/25 13:15:01;;;;;;;;;;;6.50;55.40;;;;;;4373940;32;20397;-44
2021/10/25 13:17:27;;;;;;;;;;;6.50;55.60;;;;;;4360279;32;19969;-43
2021/10/25 13:19:53;;;;;;;;;;;6.50;56.10;;;;;;4374322;32;19962;-42
2021/10/25 13:22:20;;;;;;;;;;;6.50;55.40;;;;;;4341455;33;20058;-44
2021/10/25 13:24:46;;;;;;;;;;;6.60;55.50;;;;;;4329167;33;20414;-39
2021/10/25 13:27:12;;;;;;;;;;;6.60;55.30;;;;;;4342088;33;20003;-43
2021/10/25 13:29:38;;;;;;;;;;;6.60;55.20;;;;;;4341538;33;20034;-43
2021/10/25 13:32:05;;;;;;;;;;;6.60;55.20;;;;;;4341542;33;19970;-42
2021/10/25 13:34:32;;;;;;;;;;;6.60;55.00;;;;;;4341982;33;20045;-44
2021/10/25 13:36:58;;;;;;;;;;;6.60;55.20;;;;;;4341371;33;19966;-44
2021/10/25 13:39:25;;;;;;;;;;;6.60;55.40;;;;;;4341608;33;19969;-43
2021/10/25 13:41:54;;;;;;;;;;;6.60;55.20;;;;;;4341594;33;19974;-44
2021/10/25 13:44:20;;;;;;;;;;;6.50;55.20;;;;;;4341253;33;19970;-43
2021/10/25 13:46:47;;;;;;;;;;;6.50;55.40;;;;;;4326678;33;19982;-43
2021/10/25 13:49:13;;;;;;;;;;;6.50;55.70;;;;;;4327066;33;20360;-43
2021/10/25 13:51:39;;;;;;;;;;;6.50;55.40;;;;;;4314758;33;19975;-43
2021/10/25 13:54:06;;;;;;;;;;;6.50;55.30;;;;;;4352966;32;19962;-43
2021/10/25 13:56:34;;;;;;;;;;;6.50;55.40;;;;;;4345002;32;19962;-43
2021/10/25 13:59:00;;;;;;;;;;;6.60;55.20;;;;;;4358533;32;19966;-42
2021/10/25 14:01:26;;;;;;;;;;;6.60;54.90;;;;;;4358622;32;19977;-43
2021/10/25 14:03:52;;;;;;;;;;;6.50;54.30;;;;;;4358428;32;20340;-44
2021/10/25 14:06:21;;;;;;;;;;;6.50;54.70;;;;;;4358666;32;19972;-40
2021/10/25 14:08:49;;;;;;;;;;;6.50;54.90;;;;;;4359139;32;20404;-44
2021/10/25 14:11:16;;;;;;;;;;;6.40;54.00;;;;;;4358678;32;19967;-43
2021/10/25 14:14:26;;;;;;;;;;;6.40;54.20;;;;;;4358489;32;19966;-44
2021/10/25 14:16:34;;;;;;;;;;;6.40;53.90;;;;;;4351406;32;19967;-43
2021/10/25 14:19:02;;;;;;;;;;;6.40;53.70;;;;;;4358263;32;20070;-43
2021/10/25 14:21:33;;;;;;;;;;;6.40;53.40;;;;;;4358521;32;20050;-44
2021/10/25 14:24:01;;;;;;;;;;;6.40;53.10;;;;;;4358303;32;19966;-43
2021/10/25 14:26:27;;;;;;;;;;;6.50;52.90;;;;;;4358919;32;20013;-45
2021/10/25 14:28:54;;;;;;;;;;;6.50;52.60;;;;;;4358854;32;19978;-44
2021/10/25 14:31:20;;;;;;;;;;;6.40;51.90;;;;;;4344322;32;19974;-40
2021/10/25 14:33:46;;;;;;;;;;;6.40;52.10;;;;;;4358219;32;20001;-44
2021/10/25 14:36:13;;;;;;;;;;;6.50;51.60;;;;;;4358063;32;20042;-44
2021/10/25 14:38:51;;;;;;;;;;;6.50;51.70;;;;;;4358020;32;19982;-45
2021/10/25 14:41:24;;;;;;;;;;;6.50;51.70;;;;;;4358420;32;19963;-44
2021/10/25 14:44:00;;;;;;;;;;;6.50;51.30;;;;;;4358093;32;20383;-41
2021/10/25 14:57:18;;;;;;;;;;;6.50;50.60;;;;;;4359385;32;19972;-42
2021/10/25 14:59:45;;;;;;;;;;;6.40;50.50;;;;;;4373131;32;19985;-42
2021/10/25 15:02:11;;;;;;;;;;;6.40;50.20;;;;;;4373165;32;20521;-43
2021/10/25 15:04:38;;;;;;;;;;;6.40;50.40;;;;;;4373094;32;19966;-43
2021/10/25 15:07:04;;;;;;;;;;;6.50;50.40;;;;;;4372918;32;20386;-42
2021/10/25 15:09:30;;;;;;;;;;;6.60;50.10;;;;;;4373656;32;19977;-43
2021/10/25 15:11:57;;;;;;;;;;;6.60;50.20;;;;;;4376242;32;20037;-42
2021/10/25 15:14:24;;;;;;;;;;;6.60;49.80;;;;;;4375803;32;20407;-42
2021/10/25 15:16:50;;;;;;;;;;;6.60;49.50;;;;;;4376146;32;20110;-43
2021/10/25 15:19:16;;;;;;;;;;;6.60;49.20;;;;;;4375866;32;19947;-44
2021/10/25 15:21:45;;;;;;;;;;;6.70;49.20;;;;;;4375463;32;20157;-43
2021/10/25 15:24:13;;;;;;;;;;;6.70;49.50;;;;;;4375930;32;19962;-42
2021/10/25 15:26:45;;;;;;;;;;;6.70;49.60;;;;;;4376047;32;20451;-44
2021/10/25 15:29:12;;;;;;;;;;;6.60;49.70;;;;;;4375593;32;20094;-44
2021/10/25 15:31:38;;;;;;;;;;;6.60;49.90;;;;;;4358166;32;19978;-43
2021/10/25 15:34:04;;;;;;;;;;;6.60;49.60;;;;;;4358409;32;20009;-41
2021/10/25 15:36:31;;;;;;;;;;;6.70;49.30;;;;;;4358126;32;19998;-42
2021/10/25 15:38:57;;;;;;;;;;;6.60;48.50;;;;;;4358734;32;19991;-43
2021/10/25 15:41:25;;;;;;;;;;;6.60;48.50;;;;;;4358226;32;20518;-44
2021/10/25 15:43:52;;;;;;;;;;;6.70;48.70;;;;;;4358205;32;20048;-44
2021/10/25 15:46:18;;;;;;;;;;;6.70;48.90;;;;;;4348739;32;20484;-43
2021/10/25 15:48:45;;;;;;;;;;;6.70;49.00;;;;;;4343215;33;20085;-43
2021/10/25 15:51:14;;;;;;;;;;;6.70;49.00;;;;;;4343252;33;20479;-43
2021/10/25 15:53:40;;;;;;;;;;;6.70;49.20;;;;;;4343782;33;19971;-42
2021/10/25 15:56:06;;;;;;;;;;;6.70;49.40;;;;;;4342897;33;19986;-43
2021/10/25 15:58:34;;;;;;;;;;;6.60;49.50;;;;;;4343399;33;20005;-42
2021/10/25 16:01:00;;;;;;;;;;;6.60;49.80;;;;;;4331570;33;20001;-43
2021/10/25 16:03:26;;;;;;;;;;;6.60;49.60;;;;;;4343419;33;20037;-43
2021/10/25 16:05:52;;;;;;;;;;;6.70;49.80;;;;;;4343486;33;20087;-42
2021/10/25 16:08:18;;;;;;;;;;;6.70;49.10;;;;;;4346422;32;19954;-42
2021/10/25 16:10:45;;;;;;;;;;;6.70;47.10;;;;;;4360354;32;19969;-42
2021/10/25 16:13:11;;;;;;;;;;;6.60;46.50;;;;;;4359966;32;20002;-42